sensor_id;sensor_type;location;lat;lon;timestamp;P1;durP1;ratioP1;P2;durP2;ratioP2
14394;SDS011;7282;49.204;10.652;2023-04-29T00:01:03;18.23;;;11.17;;
14394;SDS011;7282;49.204;10.652;2023-04-29T00:03:30;13.30;;;8.73;;
14394;SDS011;7282;49.204;10.652;2023-04-29T00:06:00;10.70;;;7.43;;
14394;SDS011;7282;49.204;10.652;2023-04-29T00:08:26;9.83;;;7.23;;
14394;SDS011;7282;49.204;10.652;2023-04-29T00:10:53;8.20;;;6.47;;
14394;SDS011;7282;49.204;10.652;2023-04-29T00:13:20;7.70;;;6.13;;
14394;SDS011;7282;49.204;10.652;2023-04-29T00:15:47;19.17;;;10.80;;
14394;SDS011;7282;49.204;10.652;2023-04-29T00:18:14;12.43;;;7.80;;
14394;SDS011;7282;49.204;10.652;2023-04-29T00:20:40;8.23;;;7.27;;
14394;SDS011;7282;49.204;10.652;2023-04-29T00:23:08;13.20;;;9.97;;
14394;SDS011;7282;49.204;10.652;2023-04-29T00:25:35;20.73;;;14.60;;
14394;SDS011;7282;49.204;10.652;2023-04-29T00:28:03;36.93;;;18.23;;
14394;SDS011;7282;49.204;10.652;2023-04-29T00:30:30;30.97;;;18.03;;
14394;SDS011;7282;49.204;10.652;2023-04-29T00:32:58;37.43;;;21.43;;
14394;SDS011;7282;49.204;10.652;2023-04-29T00:35:25;58.00;;;24.77;;
14394;SDS011;7282;49.204;10.652;2023-04-29T00:37:51;46.10;;;22.93;;
14394;SDS011;7282;49.204;10.652;2023-04-29T00:40:18;40.87;;;21.00;;
14394;SDS011;7282;49.204;10.652;2023-04-29T00:42:45;39.20;;;22.53;;
14394;SDS011;7282;49.204;10.652;2023-04-29T00:45:12;42.13;;;23.40;;
14394;SDS011;7282;49.204;10.652;2023-04-29T00:47:38;51.03;;;26.37;;
14394;SDS011;7282;49.204;10.652;2023-04-29T00:50:05;45.30;;;24.27;;
14394;SDS011;7282;49.204;10.652;2023-04-29T00:52:33;41.27;;;24.07;;
14394;SDS011;7282;49.204;10.652;2023-04-29T00:54:59;41.53;;;24.00;;
14394;SDS011;7282;49.204;10.652;2023-04-29T00:57:26;55.97;;;25.60;;
14394;SDS011;7282;49.204;10.652;2023-04-29T00:59:56;39.47;;;22.33;;
14394;SDS011;7282;49.204;10.652;2023-04-29T01:02:24;37.57;;;22.87;;
14394;SDS011;7282;49.204;10.652;2023-04-29T01:04:51;40.53;;;23.27;;
14394;SDS011;7282;49.204;10.652;2023-04-29T01:07:23;30.53;;;20.00;;
14394;SDS011;7282;49.204;10.652;2023-04-29T01:10:00;23.20;;;17.73;;
14394;SDS011;7282;49.204;10.652;2023-04-29T01:15:04;30.90;;;20.80;;
14394;SDS011;7282;49.204;10.652;2023-04-29T01:17:39;37.03;;;22.47;;
14394;SDS011;7282;49.204;10.652;2023-04-29T01:20:03;41.77;;;22.10;;
14394;SDS011;7282;49.204;10.652;2023-04-29T01:22:30;26.93;;;19.10;;
14394;SDS011;7282;49.204;10.652;2023-04-29T01:24:57;28.13;;;18.13;;
14394;SDS011;7282;49.204;10.652;2023-04-29T01:27:28;27.20;;;18.23;;
14394;SDS011;7282;49.204;10.652;2023-04-29T01:30:01;28.67;;;18.57;;
14394;SDS011;7282;49.204;10.652;2023-04-29T01:32:40;30.13;;;19.70;;
14394;SDS011;7282;49.204;10.652;2023-04-29T01:40:19;28.33;;;19.40;;
14394;SDS011;7282;49.204;10.652;2023-04-29T01:42:50;23.37;;;17.33;;
14394;SDS011;7282;49.204;10.652;2023-04-29T01:45:16;24.80;;;17.70;;
14394;SDS011;7282;49.204;10.652;2023-04-29T01:47:43;26.47;;;19.30;;
14394;SDS011;7282;49.204;10.652;2023-04-29T01:50:10;23.43;;;18.53;;
14394;SDS011;7282;49.204;10.652;2023-04-29T01:52:37;23.33;;;17.03;;
14394;SDS011;7282;49.204;10.652;2023-04-29T01:55:04;21.30;;;16.47;;
14394;SDS011;7282;49.204;10.652;2023-04-29T01:57:31;25.27;;;18.13;;
14394;SDS011;7282;49.204;10.652;2023-04-29T01:59:59;23.30;;;17.37;;
14394;SDS011;7282;49.204;10.652;2023-04-29T02:02:27;24.63;;;18.37;;
14394;SDS011;7282;49.204;10.652;2023-04-29T02:04:53;27.93;;;18.67;;
14394;SDS011;7282;49.204;10.652;2023-04-29T02:07:20;24.40;;;17.97;;
14394;SDS011;7282;49.204;10.652;2023-04-29T02:09:47;27.07;;;19.97;;
14394;SDS011;7282;49.204;10.652;2023-04-29T02:12:14;25.53;;;17.97;;
14394;SDS011;7282;49.204;10.652;2023-04-29T02:14:41;27.17;;;19.83;;
14394;SDS011;7282;49.204;10.652;2023-04-29T02:17:07;23.63;;;16.87;;
14394;SDS011;7282;49.204;10.652;2023-04-29T02:19:34;29.33;;;18.93;;
14394;SDS011;7282;49.204;10.652;2023-04-29T02:22:01;35.87;;;20.63;;
14394;SDS011;7282;49.204;10.652;2023-04-29T02:24:28;23.43;;;17.57;;
14394;SDS011;7282;49.204;10.652;2023-04-29T02:26:55;23.70;;;16.77;;
14394;SDS011;7282;49.204;10.652;2023-04-29T02:29:22;37.87;;;22.30;;
14394;SDS011;7282;49.204;10.652;2023-04-29T02:31:48;42.43;;;23.37;;
14394;SDS011;7282;49.204;10.652;2023-04-29T02:34:15;30.17;;;20.47;;
14394;SDS011;7282;49.204;10.652;2023-04-29T02:36:43;31.33;;;20.33;;
14394;SDS011;7282;49.204;10.652;2023-04-29T02:39:09;23.77;;;16.80;;
14394;SDS011;7282;49.204;10.652;2023-04-29T02:41:36;34.17;;;19.67;;
14394;SDS011;7282;49.204;10.652;2023-04-29T02:44:03;21.53;;;16.67;;
14394;SDS011;7282;49.204;10.652;2023-04-29T02:46:29;21.67;;;16.43;;
14394;SDS011;7282;49.204;10.652;2023-04-29T02:48:58;30.00;;;20.10;;
14394;SDS011;7282;49.204;10.652;2023-04-29T02:51:26;24.67;;;18.90;;
14394;SDS011;7282;49.204;10.652;2023-04-29T02:53:53;77.67;;;22.13;;
14394;SDS011;7282;49.204;10.652;2023-04-29T02:56:19;15.67;;;11.93;;
14394;SDS011;7282;49.204;10.652;2023-04-29T02:58:46;39.00;;;20.37;;
14394;SDS011;7282;49.204;10.652;2023-04-29T03:01:13;29.27;;;18.20;;
14394;SDS011;7282;49.204;10.652;2023-04-29T03:03:40;17.93;;;14.10;;
14394;SDS011;7282;49.204;10.652;2023-04-29T03:06:06;308.83;;;40.73;;
14394;SDS011;7282;49.204;10.652;2023-04-29T03:08:33;74.87;;;15.63;;
14394;SDS011;7282;49.204;10.652;2023-04-29T03:11:00;227.90;;;32.47;;
14394;SDS011;7282;49.204;10.652;2023-04-29T03:13:27;8.83;;;7.77;;
14394;SDS011;7282;49.204;10.652;2023-04-29T03:15:54;7.90;;;7.20;;
14394;SDS011;7282;49.204;10.652;2023-04-29T03:18:22;6.57;;;6.00;;
14394;SDS011;7282;49.204;10.652;2023-04-29T03:20:49;12.70;;;10.37;;
14394;SDS011;7282;49.204;10.652;2023-04-29T03:23:16;34.07;;;20.60;;
14394;SDS011;7282;49.204;10.652;2023-04-29T03:25:43;113.77;;;25.70;;
14394;SDS011;7282;49.204;10.652;2023-04-29T03:28:09;12.67;;;11.03;;
14394;SDS011;7282;49.204;10.652;2023-04-29T03:30:36;13.73;;;10.83;;
14394;SDS011;7282;49.204;10.652;2023-04-29T03:33:03;67.53;;;17.47;;
14394;SDS011;7282;49.204;10.652;2023-04-29T03:35:30;107.33;;;20.87;;
14394;SDS011;7282;49.204;10.652;2023-04-29T03:37:56;10.83;;;9.70;;
14394;SDS011;7282;49.204;10.652;2023-04-29T03:40:23;12.10;;;10.10;;
14394;SDS011;7282;49.204;10.652;2023-04-29T03:42:50;11.60;;;9.97;;
14394;SDS011;7282;49.204;10.652;2023-04-29T03:45:16;43.47;;;18.07;;
14394;SDS011;7282;49.204;10.652;2023-04-29T03:47:43;30.77;;;17.20;;
14394;SDS011;7282;49.204;10.652;2023-04-29T03:50:10;72.40;;;21.30;;
14394;SDS011;7282;49.204;10.652;2023-04-29T03:52:37;15.57;;;13.27;;
14394;SDS011;7282;49.204;10.652;2023-04-29T03:55:04;24.27;;;15.87;;
14394;SDS011;7282;49.204;10.652;2023-04-29T03:57:30;30.87;;;16.93;;
14394;SDS011;7282;49.204;10.652;2023-04-29T03:59:57;33.97;;;18.27;;
14394;SDS011;7282;49.204;10.652;2023-04-29T04:02:24;55.13;;;22.87;;
14394;SDS011;7282;49.204;10.652;2023-04-29T04:04:51;23.73;;;17.17;;
14394;SDS011;7282;49.204;10.652;2023-04-29T04:07:20;47.63;;;21.87;;
14394;SDS011;7282;49.204;10.652;2023-04-29T04:09:46;45.00;;;21.70;;
14394;SDS011;7282;49.204;10.652;2023-04-29T04:12:13;25.97;;;18.87;;
14394;SDS011;7282;49.204;10.652;2023-04-29T04:14:40;28.57;;;17.80;;
14394;SDS011;7282;49.204;10.652;2023-04-29T04:17:07;24.70;;;15.27;;
14394;SDS011;7282;49.204;10.652;2023-04-29T04:19:33;49.37;;;20.67;;
14394;SDS011;7282;49.204;10.652;2023-04-29T04:22:02;19.73;;;15.43;;
14394;SDS011;7282;49.204;10.652;2023-04-29T04:24:28;58.23;;;23.30;;
14394;SDS011;7282;49.204;10.652;2023-04-29T04:26:55;28.47;;;17.97;;
14394;SDS011;7282;49.204;10.652;2023-04-29T04:29:22;20.53;;;16.27;;
14394;SDS011;7282;49.204;10.652;2023-04-29T04:31:48;67.47;;;25.03;;
14394;SDS011;7282;49.204;10.652;2023-04-29T04:34:15;39.57;;;22.70;;
14394;SDS011;7282;49.204;10.652;2023-04-29T04:36:42;96.50;;;32.87;;
14394;SDS011;7282;49.204;10.652;2023-04-29T04:39:08;39.57;;;23.67;;
14394;SDS011;7282;49.204;10.652;2023-04-29T04:41:35;98.13;;;32.93;;
14394;SDS011;7282;49.204;10.652;2023-04-29T04:44:02;67.73;;;29.03;;
14394;SDS011;7282;49.204;10.652;2023-04-29T04:46:29;129.77;;;38.63;;
14394;SDS011;7282;49.204;10.652;2023-04-29T04:48:56;94.87;;;35.93;;
14394;SDS011;7282;49.204;10.652;2023-04-29T04:51:22;117.60;;;40.40;;
14394;SDS011;7282;49.204;10.652;2023-04-29T04:53:49;73.07;;;32.80;;
14394;SDS011;7282;49.204;10.652;2023-04-29T04:56:16;49.30;;;29.40;;
14394;SDS011;7282;49.204;10.652;2023-04-29T04:58:43;90.07;;;36.50;;
14394;SDS011;7282;49.204;10.652;2023-04-29T05:01:10;47.03;;;27.70;;
14394;SDS011;7282;49.204;10.652;2023-04-29T05:03:36;98.20;;;39.50;;
14394;SDS011;7282;49.204;10.652;2023-04-29T05:06:03;101.23;;;41.57;;
14394;SDS011;7282;49.204;10.652;2023-04-29T05:08:30;76.10;;;36.03;;
14394;SDS011;7282;49.204;10.652;2023-04-29T05:10:56;72.93;;;35.40;;
14394;SDS011;7282;49.204;10.652;2023-04-29T05:13:23;65.17;;;36.37;;
14394;SDS011;7282;49.204;10.652;2023-04-29T05:15:52;101.07;;;42.93;;
14394;SDS011;7282;49.204;10.652;2023-04-29T05:18:18;66.93;;;37.50;;
14394;SDS011;7282;49.204;10.652;2023-04-29T05:20:45;82.07;;;41.43;;
14394;SDS011;7282;49.204;10.652;2023-04-29T05:23:12;94.23;;;44.60;;
14394;SDS011;7282;49.204;10.652;2023-04-29T05:25:39;80.13;;;42.43;;
14394;SDS011;7282;49.204;10.652;2023-04-29T05:28:06;85.00;;;42.53;;
14394;SDS011;7282;49.204;10.652;2023-04-29T05:30:37;79.00;;;40.40;;
14394;SDS011;7282;49.204;10.652;2023-04-29T05:33:02;81.07;;;43.13;;
14394;SDS011;7282;49.204;10.652;2023-04-29T05:35:29;78.43;;;41.23;;
14394;SDS011;7282;49.204;10.652;2023-04-29T05:37:57;73.67;;;39.63;;
14394;SDS011;7282;49.204;10.652;2023-04-29T05:40:23;76.80;;;40.90;;
14394;SDS011;7282;49.204;10.652;2023-04-29T05:42:50;80.67;;;40.97;;
14394;SDS011;7282;49.204;10.652;2023-04-29T05:45:17;84.17;;;41.50;;
14394;SDS011;7282;49.204;10.652;2023-04-29T05:47:44;70.47;;;39.40;;
14394;SDS011;7282;49.204;10.652;2023-04-29T05:50:10;65.90;;;38.67;;
14394;SDS011;7282;49.204;10.652;2023-04-29T05:52:37;78.80;;;40.80;;
14394;SDS011;7282;49.204;10.652;2023-04-29T05:55:04;69.00;;;39.57;;
14394;SDS011;7282;49.204;10.652;2023-04-29T05:57:31;71.70;;;39.93;;
14394;SDS011;7282;49.204;10.652;2023-04-29T05:59:58;68.97;;;37.43;;
14394;SDS011;7282;49.204;10.652;2023-04-29T06:02:25;59.33;;;35.20;;
14394;SDS011;7282;49.204;10.652;2023-04-29T06:04:52;56.77;;;32.40;;
14394;SDS011;7282;49.204;10.652;2023-04-29T06:07:19;48.60;;;29.53;;
14394;SDS011;7282;49.204;10.652;2023-04-29T06:09:45;46.07;;;28.93;;
14394;SDS011;7282;49.204;10.652;2023-04-29T06:12:12;41.57;;;27.50;;
14394;SDS011;7282;49.204;10.652;2023-04-29T06:14:39;37.00;;;23.93;;
14394;SDS011;7282;49.204;10.652;2023-04-29T06:17:06;35.63;;;22.83;;
14394;SDS011;7282;49.204;10.652;2023-04-29T06:19:33;35.50;;;23.77;;
14394;SDS011;7282;49.204;10.652;2023-04-29T06:22:00;31.47;;;20.70;;
14394;SDS011;7282;49.204;10.652;2023-04-29T06:24:26;25.50;;;19.57;;
14394;SDS011;7282;49.204;10.652;2023-04-29T06:26:53;26.43;;;20.23;;
14394;SDS011;7282;49.204;10.652;2023-04-29T06:29:20;28.80;;;20.03;;
14394;SDS011;7282;49.204;10.652;2023-04-29T06:31:46;27.07;;;18.90;;
14394;SDS011;7282;49.204;10.652;2023-04-29T06:34:13;26.20;;;20.83;;
14394;SDS011;7282;49.204;10.652;2023-04-29T06:36:40;24.97;;;20.50;;
14394;SDS011;7282;49.204;10.652;2023-04-29T06:39:06;25.60;;;21.70;;
14394;SDS011;7282;49.204;10.652;2023-04-29T06:41:33;31.23;;;24.40;;
14394;SDS011;7282;49.204;10.652;2023-04-29T06:44:01;28.27;;;23.17;;
14394;SDS011;7282;49.204;10.652;2023-04-29T06:46:28;26.03;;;22.23;;
14394;SDS011;7282;49.204;10.652;2023-04-29T06:48:55;25.53;;;22.50;;
14394;SDS011;7282;49.204;10.652;2023-04-29T06:51:22;25.20;;;21.30;;
14394;SDS011;7282;49.204;10.652;2023-04-29T06:53:50;25.43;;;22.13;;
14394;SDS011;7282;49.204;10.652;2023-04-29T06:56:19;23.13;;;20.23;;
14394;SDS011;7282;49.204;10.652;2023-04-29T06:58:46;23.47;;;20.90;;
14394;SDS011;7282;49.204;10.652;2023-04-29T07:01:13;21.53;;;19.23;;
14394;SDS011;7282;49.204;10.652;2023-04-29T07:03:40;20.67;;;18.50;;
14394;SDS011;7282;49.204;10.652;2023-04-29T07:06:07;19.73;;;17.73;;
14394;SDS011;7282;49.204;10.652;2023-04-29T07:08:34;18.80;;;16.80;;
14394;SDS011;7282;49.204;10.652;2023-04-29T07:11:00;19.23;;;17.23;;
14394;SDS011;7282;49.204;10.652;2023-04-29T07:13:27;17.80;;;16.00;;
14394;SDS011;7282;49.204;10.652;2023-04-29T07:15:54;17.80;;;15.97;;
14394;SDS011;7282;49.204;10.652;2023-04-29T07:18:21;17.47;;;15.67;;
14394;SDS011;7282;49.204;10.652;2023-04-29T07:20:47;19.53;;;17.53;;
14394;SDS011;7282;49.204;10.652;2023-04-29T07:23:16;19.80;;;17.70;;
14394;SDS011;7282;49.204;10.652;2023-04-29T07:25:42;19.93;;;17.93;;
14394;SDS011;7282;49.204;10.652;2023-04-29T07:28:09;20.80;;;18.60;;
14394;SDS011;7282;49.204;10.652;2023-04-29T07:30:36;21.20;;;18.87;;
14394;SDS011;7282;49.204;10.652;2023-04-29T07:33:03;22.13;;;19.47;;
14394;SDS011;7282;49.204;10.652;2023-04-29T07:35:30;21.43;;;19.23;;
14394;SDS011;7282;49.204;10.652;2023-04-29T07:37:57;24.23;;;20.30;;
14394;SDS011;7282;49.204;10.652;2023-04-29T07:40:23;21.60;;;18.53;;
14394;SDS011;7282;49.204;10.652;2023-04-29T07:42:50;20.93;;;18.70;;
14394;SDS011;7282;49.204;10.652;2023-04-29T07:45:17;21.23;;;19.03;;
14394;SDS011;7282;49.204;10.652;2023-04-29T07:47:43;20.47;;;18.20;;
14394;SDS011;7282;49.204;10.652;2023-04-29T07:50:10;19.30;;;17.30;;
14394;SDS011;7282;49.204;10.652;2023-04-29T07:52:37;19.23;;;17.33;;
14394;SDS011;7282;49.204;10.652;2023-04-29T07:55:04;20.73;;;17.47;;
14394;SDS011;7282;49.204;10.652;2023-04-29T07:57:31;18.97;;;16.97;;
14394;SDS011;7282;49.204;10.652;2023-04-29T07:59:58;18.07;;;16.27;;
14394;SDS011;7282;49.204;10.652;2023-04-29T08:02:24;18.57;;;16.67;;
14394;SDS011;7282;49.204;10.652;2023-04-29T08:04:51;17.43;;;15.60;;
14394;SDS011;7282;49.204;10.652;2023-04-29T08:07:19;16.73;;;15.10;;
14394;SDS011;7282;49.204;10.652;2023-04-29T08:09:46;17.93;;;16.10;;
14394;SDS011;7282;49.204;10.652;2023-04-29T08:12:12;17.27;;;15.57;;
14394;SDS011;7282;49.204;10.652;2023-04-29T08:14:39;15.87;;;14.17;;
14394;SDS011;7282;49.204;10.652;2023-04-29T08:17:06;14.97;;;13.50;;
14394;SDS011;7282;49.204;10.652;2023-04-29T08:19:33;15.90;;;14.40;;
14394;SDS011;7282;49.204;10.652;2023-04-29T08:22:00;15.07;;;13.57;;
14394;SDS011;7282;49.204;10.652;2023-04-29T08:24:29;15.00;;;12.70;;
14394;SDS011;7282;49.204;10.652;2023-04-29T08:26:56;14.63;;;13.23;;
14394;SDS011;7282;49.204;10.652;2023-04-29T08:29:23;12.43;;;10.80;;
14394;SDS011;7282;49.204;10.652;2023-04-29T08:31:50;12.93;;;11.67;;
14394;SDS011;7282;49.204;10.652;2023-04-29T08:34:17;13.60;;;12.30;;
14394;SDS011;7282;49.204;10.652;2023-04-29T08:36:44;14.20;;;12.80;;
14394;SDS011;7282;49.204;10.652;2023-04-29T08:39:11;13.77;;;12.37;;
14394;SDS011;7282;49.204;10.652;2023-04-29T08:41:37;13.97;;;12.60;;
14394;SDS011;7282;49.204;10.652;2023-04-29T08:44:04;13.73;;;12.43;;
14394;SDS011;7282;49.204;10.652;2023-04-29T08:46:31;12.77;;;11.37;;
14394;SDS011;7282;49.204;10.652;2023-04-29T08:49:00;12.40;;;11.20;;
14394;SDS011;7282;49.204;10.652;2023-04-29T08:51:28;11.17;;;10.07;;
14394;SDS011;7282;49.204;10.652;2023-04-29T08:53:57;12.70;;;11.53;;
14394;SDS011;7282;49.204;10.652;2023-04-29T08:56:24;12.30;;;11.07;;
14394;SDS011;7282;49.204;10.652;2023-04-29T08:58:52;11.73;;;10.53;;
14394;SDS011;7282;49.204;10.652;2023-04-29T09:01:26;11.80;;;10.70;;
14394;SDS011;7282;49.204;10.652;2023-04-29T09:03:53;12.10;;;10.90;;
14394;SDS011;7282;49.204;10.652;2023-04-29T09:06:20;11.60;;;10.50;;
14394;SDS011;7282;49.204;10.652;2023-04-29T09:08:47;11.80;;;10.70;;
14394;SDS011;7282;49.204;10.652;2023-04-29T09:11:14;12.80;;;10.63;;
14394;SDS011;7282;49.204;10.652;2023-04-29T09:13:41;11.77;;;10.67;;
14394;SDS011;7282;49.204;10.652;2023-04-29T09:16:11;11.43;;;10.33;;
14394;SDS011;7282;49.204;10.652;2023-04-29T09:21:20;12.00;;;10.90;;
14394;SDS011;7282;49.204;10.652;2023-04-29T09:23:47;10.77;;;9.80;;
14394;SDS011;7282;49.204;10.652;2023-04-29T09:26:14;10.80;;;9.80;;
14394;SDS011;7282;49.204;10.652;2023-04-29T09:28:41;10.70;;;9.70;;
14394;SDS011;7282;49.204;10.652;2023-04-29T09:31:10;9.03;;;8.20;;
14394;SDS011;7282;49.204;10.652;2023-04-29T09:33:50;10.53;;;9.43;;
14394;SDS011;7282;49.204;10.652;2023-04-29T09:39:10;11.13;;;10.10;;
14394;SDS011;7282;49.204;10.652;2023-04-29T09:41:41;9.90;;;9.00;;
14394;SDS011;7282;49.204;10.652;2023-04-29T09:44:08;10.60;;;9.60;;
14394;SDS011;7282;49.204;10.652;2023-04-29T09:46:35;9.83;;;8.93;;
14394;SDS011;7282;49.204;10.652;2023-04-29T09:49:02;10.60;;;9.70;;
14394;SDS011;7282;49.204;10.652;2023-04-29T09:51:32;11.63;;;10.53;;
14394;SDS011;7282;49.204;10.652;2023-04-29T09:53:59;10.87;;;9.87;;
14394;SDS011;7282;49.204;10.652;2023-04-29T09:56:28;11.20;;;10.10;;
14394;SDS011;7282;49.204;10.652;2023-04-29T09:58:59;11.27;;;10.17;;
14394;SDS011;7282;49.204;10.652;2023-04-29T10:01:25;9.23;;;8.33;;
14394;SDS011;7282;49.204;10.652;2023-04-29T10:03:52;9.00;;;8.20;;
14394;SDS011;7282;49.204;10.652;2023-04-29T10:06:20;10.57;;;9.50;;
14394;SDS011;7282;49.204;10.652;2023-04-29T10:08:47;9.47;;;8.67;;
14394;SDS011;7282;49.204;10.652;2023-04-29T10:11:14;10.20;;;9.30;;
14394;SDS011;7282;49.204;10.652;2023-04-29T10:13:42;10.57;;;9.67;;
14394;SDS011;7282;49.204;10.652;2023-04-29T10:16:11;10.27;;;9.23;;
14394;SDS011;7282;49.204;10.652;2023-04-29T10:18:39;9.97;;;8.90;;
14394;SDS011;7282;49.204;10.652;2023-04-29T10:21:06;10.13;;;9.23;;
14394;SDS011;7282;49.204;10.652;2023-04-29T10:23:36;9.60;;;8.80;;
14394;SDS011;7282;49.204;10.652;2023-04-29T10:26:03;9.70;;;8.77;;
14394;SDS011;7282;49.204;10.652;2023-04-29T10:28:31;9.63;;;8.57;;
14394;SDS011;7282;49.204;10.652;2023-04-29T10:31:01;10.10;;;8.77;;
14394;SDS011;7282;49.204;10.652;2023-04-29T10:33:31;8.80;;;8.00;;
14394;SDS011;7282;49.204;10.652;2023-04-29T10:35:58;8.73;;;7.93;;
14394;SDS011;7282;49.204;10.652;2023-04-29T10:38:31;7.37;;;6.70;;
14394;SDS011;7282;49.204;10.652;2023-04-29T10:40:57;7.43;;;6.83;;
14394;SDS011;7282;49.204;10.652;2023-04-29T10:43:26;7.03;;;6.43;;
14394;SDS011;7282;49.204;10.652;2023-04-29T10:46:15;8.03;;;7.33;;
14394;SDS011;7282;49.204;10.652;2023-04-29T10:48:21;7.97;;;7.17;;
14394;SDS011;7282;49.204;10.652;2023-04-29T10:53:19;7.37;;;6.77;;
14394;SDS011;7282;49.204;10.652;2023-04-29T10:55:46;8.50;;;7.70;;
14394;SDS011;7282;49.204;10.652;2023-04-29T11:00:58;8.23;;;7.43;;
14394;SDS011;7282;49.204;10.652;2023-04-29T11:06:11;11.17;;;8.93;;
14394;SDS011;7282;49.204;10.652;2023-04-29T11:08:37;10.37;;;9.37;;
14394;SDS011;7282;49.204;10.652;2023-04-29T11:11:08;11.43;;;10.33;;
14394;SDS011;7282;49.204;10.652;2023-04-29T11:13:38;12.10;;;10.90;;
14394;SDS011;7282;49.204;10.652;2023-04-29T11:16:05;12.00;;;10.80;;
14394;SDS011;7282;49.204;10.652;2023-04-29T11:18:33;12.50;;;11.20;;
14394;SDS011;7282;49.204;10.652;2023-04-29T11:23:35;13.60;;;10.73;;
14394;SDS011;7282;49.204;10.652;2023-04-29T11:26:00;11.07;;;9.80;;
14394;SDS011;7282;49.204;10.652;2023-04-29T11:28:27;10.37;;;9.33;;
14394;SDS011;7282;49.204;10.652;2023-04-29T11:30:54;10.77;;;9.70;;
14394;SDS011;7282;49.204;10.652;2023-04-29T11:33:22;10.83;;;9.73;;
14394;SDS011;7282;49.204;10.652;2023-04-29T11:35:49;9.70;;;8.80;;
14394;SDS011;7282;49.204;10.652;2023-04-29T11:38:15;9.43;;;8.40;;
14394;SDS011;7282;49.204;10.652;2023-04-29T11:40:48;9.50;;;8.63;;
14394;SDS011;7282;49.204;10.652;2023-04-29T11:43:18;9.33;;;8.50;;
14394;SDS011;7282;49.204;10.652;2023-04-29T11:45:45;8.70;;;7.90;;
14394;SDS011;7282;49.204;10.652;2023-04-29T11:48:22;8.93;;;8.10;;
14394;SDS011;7282;49.204;10.652;2023-04-29T11:50:50;9.77;;;8.80;;
14394;SDS011;7282;49.204;10.652;2023-04-29T11:53:21;8.97;;;8.17;;
14394;SDS011;7282;49.204;10.652;2023-04-29T11:55:48;8.83;;;7.93;;
14394;SDS011;7282;49.204;10.652;2023-04-29T11:58:15;8.50;;;7.50;;
14394;SDS011;7282;49.204;10.652;2023-04-29T12:00:42;8.30;;;7.50;;
14394;SDS011;7282;49.204;10.652;2023-04-29T12:03:13;8.67;;;7.87;;
14394;SDS011;7282;49.204;10.652;2023-04-29T12:05:49;9.77;;;8.87;;
14394;SDS011;7282;49.204;10.652;2023-04-29T12:08:19;9.40;;;8.53;;
14394;SDS011;7282;49.204;10.652;2023-04-29T12:10:47;10.77;;;9.70;;
14394;SDS011;7282;49.204;10.652;2023-04-29T12:13:14;10.33;;;9.43;;
14394;SDS011;7282;49.204;10.652;2023-04-29T12:15:41;6.80;;;6.10;;
14394;SDS011;7282;49.204;10.652;2023-04-29T12:18:08;6.33;;;5.67;;
14394;SDS011;7282;49.204;10.652;2023-04-29T12:20:35;7.33;;;6.50;;
14394;SDS011;7282;49.204;10.652;2023-04-29T12:23:13;6.50;;;5.90;;
14394;SDS011;7282;49.204;10.652;2023-04-29T12:25:40;7.23;;;6.63;;
14394;SDS011;7282;49.204;10.652;2023-04-29T12:28:11;7.77;;;7.07;;
14394;SDS011;7282;49.204;10.652;2023-04-29T12:30:36;7.27;;;6.27;;
14394;SDS011;7282;49.204;10.652;2023-04-29T12:33:02;7.40;;;6.40;;
14394;SDS011;7282;49.204;10.652;2023-04-29T12:35:29;7.43;;;6.70;;
14394;SDS011;7282;49.204;10.652;2023-04-29T12:37:57;7.63;;;6.90;;
14394;SDS011;7282;49.204;10.652;2023-04-29T12:40:24;6.93;;;6.23;;
14394;SDS011;7282;49.204;10.652;2023-04-29T12:42:54;7.93;;;7.17;;
14394;SDS011;7282;49.204;10.652;2023-04-29T12:45:25;7.53;;;6.70;;
14394;SDS011;7282;49.204;10.652;2023-04-29T12:47:51;7.13;;;6.53;;
14394;SDS011;7282;49.204;10.652;2023-04-29T12:50:19;6.90;;;6.30;;
14394;SDS011;7282;49.204;10.652;2023-04-29T12:52:46;7.50;;;6.80;;
14394;SDS011;7282;49.204;10.652;2023-04-29T12:55:12;7.70;;;6.57;;
14394;SDS011;7282;49.204;10.652;2023-04-29T12:57:39;7.70;;;7.00;;
14394;SDS011;7282;49.204;10.652;2023-04-29T13:00:06;7.37;;;6.67;;
14394;SDS011;7282;49.204;10.652;2023-04-29T13:02:33;7.37;;;6.67;;
14394;SDS011;7282;49.204;10.652;2023-04-29T13:04:59;7.43;;;6.73;;
14394;SDS011;7282;49.204;10.652;2023-04-29T13:07:26;6.97;;;6.27;;
14394;SDS011;7282;49.204;10.652;2023-04-29T13:09:53;7.93;;;7.13;;
14394;SDS011;7282;49.204;10.652;2023-04-29T13:12:19;8.23;;;7.43;;
14394;SDS011;7282;49.204;10.652;2023-04-29T13:14:47;6.77;;;5.93;;
14394;SDS011;7282;49.204;10.652;2023-04-29T13:17:13;6.30;;;5.80;;
14394;SDS011;7282;49.204;10.652;2023-04-29T13:19:40;6.87;;;5.90;;
14394;SDS011;7282;49.204;10.652;2023-04-29T13:22:09;6.80;;;6.10;;
14394;SDS011;7282;49.204;10.652;2023-04-29T13:24:36;6.53;;;5.93;;
14394;SDS011;7282;49.204;10.652;2023-04-29T13:27:02;7.47;;;6.70;;
14394;SDS011;7282;49.204;10.652;2023-04-29T13:29:29;7.07;;;6.47;;
14394;SDS011;7282;49.204;10.652;2023-04-29T13:31:56;7.67;;;6.97;;
14394;SDS011;7282;49.204;10.652;2023-04-29T13:34:23;7.80;;;6.97;;
14394;SDS011;7282;49.204;10.652;2023-04-29T13:36:50;7.40;;;6.70;;
14394;SDS011;7282;49.204;10.652;2023-04-29T13:39:16;7.73;;;6.93;;
14394;SDS011;7282;49.204;10.652;2023-04-29T13:41:44;7.43;;;6.73;;
14394;SDS011;7282;49.204;10.652;2023-04-29T13:44:11;7.67;;;6.27;;
14394;SDS011;7282;49.204;10.652;2023-04-29T13:46:38;6.47;;;5.87;;
14394;SDS011;7282;49.204;10.652;2023-04-29T13:49:05;6.70;;;6.10;;
14394;SDS011;7282;49.204;10.652;2023-04-29T13:51:31;6.57;;;5.80;;
14394;SDS011;7282;49.204;10.652;2023-04-29T13:53:58;6.47;;;5.87;;
14394;SDS011;7282;49.204;10.652;2023-04-29T13:56:26;6.63;;;6.00;;
14394;SDS011;7282;49.204;10.652;2023-04-29T13:58:52;6.53;;;5.90;;
14394;SDS011;7282;49.204;10.652;2023-04-29T14:01:19;6.60;;;5.90;;
14394;SDS011;7282;49.204;10.652;2023-04-29T14:03:47;8.20;;;6.23;;
14394;SDS011;7282;49.204;10.652;2023-04-29T14:06:14;6.07;;;5.47;;
14394;SDS011;7282;49.204;10.652;2023-04-29T14:08:41;7.33;;;6.63;;
14394;SDS011;7282;49.204;10.652;2023-04-29T14:11:08;6.50;;;5.90;;
14394;SDS011;7282;49.204;10.652;2023-04-29T14:13:34;6.50;;;5.90;;
14394;SDS011;7282;49.204;10.652;2023-04-29T14:16:03;6.60;;;5.90;;
14394;SDS011;7282;49.204;10.652;2023-04-29T14:18:31;6.07;;;5.47;;
14394;SDS011;7282;49.204;10.652;2023-04-29T14:20:58;7.03;;;5.70;;
14394;SDS011;7282;49.204;10.652;2023-04-29T14:23:25;6.10;;;5.60;;
14394;SDS011;7282;49.204;10.652;2023-04-29T14:25:51;5.67;;;5.13;;
14394;SDS011;7282;49.204;10.652;2023-04-29T14:28:19;5.80;;;5.13;;
14394;SDS011;7282;49.204;10.652;2023-04-29T14:30:45;5.93;;;5.33;;
14394;SDS011;7282;49.204;10.652;2023-04-29T14:33:12;5.47;;;4.97;;
14394;SDS011;7282;49.204;10.652;2023-04-29T14:35:39;26.53;;;24.83;;
14394;SDS011;7282;49.204;10.652;2023-04-29T14:38:06;9.33;;;8.43;;
14394;SDS011;7282;49.204;10.652;2023-04-29T14:40:32;6.07;;;5.47;;
14394;SDS011;7282;49.204;10.652;2023-04-29T14:42:59;6.33;;;5.83;;
14394;SDS011;7282;49.204;10.652;2023-04-29T14:45:26;5.50;;;5.00;;
14394;SDS011;7282;49.204;10.652;2023-04-29T14:47:53;5.50;;;5.00;;
14394;SDS011;7282;49.204;10.652;2023-04-29T14:50:20;5.73;;;5.23;;
14394;SDS011;7282;49.204;10.652;2023-04-29T14:52:48;6.50;;;5.03;;
14394;SDS011;7282;49.204;10.652;2023-04-29T14:55:14;5.53;;;4.57;;